sensor_id;sensor_type;location;lat;lon;timestamp;P1;durP1;ratioP1;P2;durP2;ratioP2
19747;SDS011;10032;51.386;12.516;2023-05-21T00:01:52;17.25;;;12.13;;
19747;SDS011;10032;51.386;12.516;2023-05-21T00:04:17;19.42;;;12.25;;
19747;SDS011;10032;51.386;12.516;2023-05-21T00:06:43;18.10;;;12.80;;
19747;SDS011;10032;51.386;12.516;2023-05-21T00:09:11;18.80;;;13.00;;
19747;SDS011;10032;51.386;12.516;2023-05-21T00:11:40;20.95;;;13.05;;
19747;SDS011;10032;51.386;12.516;2023-05-21T00:14:15;17.35;;;12.73;;
19747;SDS011;10032;51.386;12.516;2023-05-21T00:16:40;18.60;;;12.52;;
19747;SDS011;10032;51.386;12.516;2023-05-21T00:19:06;17.52;;;12.20;;
19747;SDS011;10032;51.386;12.516;2023-05-21T00:21:32;20.73;;;14.05;;
19747;SDS011;10032;51.386;12.516;2023-05-21T00:24:00;20.90;;;12.50;;
19747;SDS011;10032;51.386;12.516;2023-05-21T00:26:25;19.38;;;12.73;;
19747;SDS011;10032;51.386;12.516;2023-05-21T00:28:51;18.35;;;13.00;;
19747;SDS011;10032;51.386;12.516;2023-05-21T00:31:16;18.60;;;13.50;;
19747;SDS011;10032;51.386;12.516;2023-05-21T00:33:42;21.15;;;13.00;;
19747;SDS011;10032;51.386;12.516;2023-05-21T00:36:08;24.13;;;13.45;;
19747;SDS011;10032;51.386;12.516;2023-05-21T00:38:34;18.55;;;13.10;;
19747;SDS011;10032;51.386;12.516;2023-05-21T00:41:02;18.17;;;13.63;;
19747;SDS011;10032;51.386;12.516;2023-05-21T00:43:27;20.75;;;13.90;;
19747;SDS011;10032;51.386;12.516;2023-05-21T00:45:53;18.40;;;12.82;;
19747;SDS011;10032;51.386;12.516;2023-05-21T00:48:20;20.23;;;14.00;;
19747;SDS011;10032;51.386;12.516;2023-05-21T00:50:47;19.92;;;12.90;;
19747;SDS011;10032;51.386;12.516;2023-05-21T00:53:13;19.17;;;13.25;;
19747;SDS011;10032;51.386;12.516;2023-05-21T00:55:49;22.20;;;13.93;;
19747;SDS011;10032;51.386;12.516;2023-05-21T00:58:15;21.23;;;14.23;;
19747;SDS011;10032;51.386;12.516;2023-05-21T01:00:42;18.85;;;12.90;;
19747;SDS011;10032;51.386;12.516;2023-05-21T01:03:07;18.48;;;13.10;;
19747;SDS011;10032;51.386;12.516;2023-05-21T01:05:34;20.23;;;13.90;;
19747;SDS011;10032;51.386;12.516;2023-05-21T01:08:05;23.58;;;13.68;;
19747;SDS011;10032;51.386;12.516;2023-05-21T01:10:31;19.05;;;12.85;;
19747;SDS011;10032;51.386;12.516;2023-05-21T01:12:57;20.02;;;12.45;;
19747;SDS011;10032;51.386;12.516;2023-05-21T01:15:23;21.08;;;13.85;;
19747;SDS011;10032;51.386;12.516;2023-05-21T01:17:50;21.20;;;14.02;;
19747;SDS011;10032;51.386;12.516;2023-05-21T01:20:15;22.80;;;14.43;;
19747;SDS011;10032;51.386;12.516;2023-05-21T01:22:53;20.27;;;13.02;;
19747;SDS011;10032;51.386;12.516;2023-05-21T01:25:20;24.27;;;15.02;;
19747;SDS011;10032;51.386;12.516;2023-05-21T01:27:47;19.83;;;12.23;;
19747;SDS011;10032;51.386;12.516;2023-05-21T01:30:13;20.90;;;13.80;;
19747;SDS011;10032;51.386;12.516;2023-05-21T01:32:47;21.33;;;13.67;;
19747;SDS011;10032;51.386;12.516;2023-05-21T01:40:57;23.20;;;14.50;;
19747;SDS011;10032;51.386;12.516;2023-05-21T01:43:30;23.50;;;14.23;;
19747;SDS011;10032;51.386;12.516;2023-05-21T01:45:58;22.47;;;14.23;;
19747;SDS011;10032;51.386;12.516;2023-05-21T01:48:26;20.23;;;13.87;;
19747;SDS011;10032;51.386;12.516;2023-05-21T01:50:53;20.77;;;14.20;;
19747;SDS011;10032;51.386;12.516;2023-05-21T01:53:21;20.43;;;14.50;;
19747;SDS011;10032;51.386;12.516;2023-05-21T01:55:47;23.70;;;14.37;;
19747;SDS011;10032;51.386;12.516;2023-05-21T01:58:13;19.30;;;13.73;;
19747;SDS011;10032;51.386;12.516;2023-05-21T02:00:42;19.13;;;13.67;;
19747;SDS011;10032;51.386;12.516;2023-05-21T02:03:09;22.10;;;13.67;;
19747;SDS011;10032;51.386;12.516;2023-05-21T02:05:35;23.33;;;15.20;;
19747;SDS011;10032;51.386;12.516;2023-05-21T02:08:00;23.70;;;14.83;;
19747;SDS011;10032;51.386;12.516;2023-05-21T02:10:29;20.80;;;14.10;;
19747;SDS011;10032;51.386;12.516;2023-05-21T02:12:54;23.43;;;15.03;;
19747;SDS011;10032;51.386;12.516;2023-05-21T02:15:20;20.00;;;13.07;;
19747;SDS011;10032;51.386;12.516;2023-05-21T02:17:46;20.07;;;14.07;;
19747;SDS011;10032;51.386;12.516;2023-05-21T02:20:12;18.33;;;13.40;;
19747;SDS011;10032;51.386;12.516;2023-05-21T02:25:03;25.20;;;15.33;;
19747;SDS011;10032;51.386;12.516;2023-05-21T02:27:31;25.43;;;14.83;;
19747;SDS011;10032;51.386;12.516;2023-05-21T02:29:59;21.87;;;14.23;;
19747;SDS011;10032;51.386;12.516;2023-05-21T02:32:24;23.27;;;14.60;;
19747;SDS011;10032;51.386;12.516;2023-05-21T02:34:50;22.67;;;15.37;;
19747;SDS011;10032;51.386;12.516;2023-05-21T02:37:15;20.50;;;13.83;;
19747;SDS011;10032;51.386;12.516;2023-05-21T02:39:41;22.20;;;15.13;;
19747;SDS011;10032;51.386;12.516;2023-05-21T02:42:07;24.30;;;15.20;;
19747;SDS011;10032;51.386;12.516;2023-05-21T02:44:32;23.63;;;14.73;;
19747;SDS011;10032;51.386;12.516;2023-05-21T02:46:57;24.23;;;15.73;;
19747;SDS011;10032;51.386;12.516;2023-05-21T02:49:23;25.27;;;15.67;;
19747;SDS011;10032;51.386;12.516;2023-05-21T02:51:48;23.13;;;14.40;;
19747;SDS011;10032;51.386;12.516;2023-05-21T02:54:14;22.13;;;14.30;;
19747;SDS011;10032;51.386;12.516;2023-05-21T02:56:39;21.50;;;14.80;;
19747;SDS011;10032;51.386;12.516;2023-05-21T02:59:04;22.57;;;15.37;;
19747;SDS011;10032;51.386;12.516;2023-05-21T03:01:30;24.77;;;15.10;;
19747;SDS011;10032;51.386;12.516;2023-05-21T03:03:56;23.23;;;14.93;;
19747;SDS011;10032;51.386;12.516;2023-05-21T03:06:21;25.60;;;15.73;;
19747;SDS011;10032;51.386;12.516;2023-05-21T03:08:46;26.63;;;14.07;;
19747;SDS011;10032;51.386;12.516;2023-05-21T03:11:12;23.67;;;15.27;;
19747;SDS011;10032;51.386;12.516;2023-05-21T03:13:37;21.67;;;14.73;;
19747;SDS011;10032;51.386;12.516;2023-05-21T03:16:03;20.33;;;13.90;;
19747;SDS011;10032;51.386;12.516;2023-05-21T03:18:28;22.37;;;15.50;;
19747;SDS011;10032;51.386;12.516;2023-05-21T03:20:53;23.33;;;14.90;;
19747;SDS011;10032;51.386;12.516;2023-05-21T03:23:19;20.77;;;13.80;;
19747;SDS011;10032;51.386;12.516;2023-05-21T03:25:44;22.20;;;13.30;;
19747;SDS011;10032;51.386;12.516;2023-05-21T03:28:10;21.43;;;14.77;;
19747;SDS011;10032;51.386;12.516;2023-05-21T03:30:38;27.37;;;16.60;;
19747;SDS011;10032;51.386;12.516;2023-05-21T03:33:03;25.07;;;14.70;;
19747;SDS011;10032;51.386;12.516;2023-05-21T03:35:30;27.37;;;17.30;;
19747;SDS011;10032;51.386;12.516;2023-05-21T03:37:59;23.90;;;15.53;;
19747;SDS011;10032;51.386;12.516;2023-05-21T03:40:24;22.97;;;14.83;;
19747;SDS011;10032;51.386;12.516;2023-05-21T03:42:49;22.77;;;16.00;;
19747;SDS011;10032;51.386;12.516;2023-05-21T03:45:15;27.13;;;16.03;;
19747;SDS011;10032;51.386;12.516;2023-05-21T03:47:40;24.40;;;14.73;;
19747;SDS011;10032;51.386;12.516;2023-05-21T03:50:06;23.07;;;15.57;;
19747;SDS011;10032;51.386;12.516;2023-05-21T03:52:33;22.07;;;14.80;;
19747;SDS011;10032;51.386;12.516;2023-05-21T03:54:58;28.57;;;16.97;;
19747;SDS011;10032;51.386;12.516;2023-05-21T03:57:24;21.97;;;15.33;;
19747;SDS011;10032;51.386;12.516;2023-05-21T03:59:49;23.97;;;16.37;;
19747;SDS011;10032;51.386;12.516;2023-05-21T04:02:15;26.57;;;15.97;;
19747;SDS011;10032;51.386;12.516;2023-05-21T04:04:40;24.47;;;16.27;;
19747;SDS011;10032;51.386;12.516;2023-05-21T04:07:07;24.23;;;16.13;;
19747;SDS011;10032;51.386;12.516;2023-05-21T04:09:38;29.97;;;16.40;;
19747;SDS011;10032;51.386;12.516;2023-05-21T04:12:05;27.93;;;16.73;;
19747;SDS011;10032;51.386;12.516;2023-05-21T04:14:31;25.17;;;16.20;;
19747;SDS011;10032;51.386;12.516;2023-05-21T04:16:58;25.17;;;16.10;;
19747;SDS011;10032;51.386;12.516;2023-05-21T04:19:24;24.60;;;16.23;;
19747;SDS011;10032;51.386;12.516;2023-05-21T04:21:49;25.03;;;16.13;;
19747;SDS011;10032;51.386;12.516;2023-05-21T04:24:15;26.87;;;15.80;;
19747;SDS011;10032;51.386;12.516;2023-05-21T04:26:40;26.73;;;15.80;;
19747;SDS011;10032;51.386;12.516;2023-05-21T04:29:06;25.97;;;16.43;;
19747;SDS011;10032;51.386;12.516;2023-05-21T04:31:32;25.20;;;16.00;;
19747;SDS011;10032;51.386;12.516;2023-05-21T04:33:57;27.87;;;17.27;;
19747;SDS011;10032;51.386;12.516;2023-05-21T04:36:23;26.57;;;15.57;;
19747;SDS011;10032;51.386;12.516;2023-05-21T04:38:49;29.03;;;17.13;;
19747;SDS011;10032;51.386;12.516;2023-05-21T04:41:14;23.87;;;15.33;;
19747;SDS011;10032;51.386;12.516;2023-05-21T04:43:42;23.93;;;15.97;;
19747;SDS011;10032;51.386;12.516;2023-05-21T04:46:08;23.57;;;15.23;;
19747;SDS011;10032;51.386;12.516;2023-05-21T04:48:34;25.20;;;15.47;;
19747;SDS011;10032;51.386;12.516;2023-05-21T04:50:59;25.37;;;16.33;;
19747;SDS011;10032;51.386;12.516;2023-05-21T04:53:24;26.27;;;17.13;;
19747;SDS011;10032;51.386;12.516;2023-05-21T04:55:50;23.37;;;15.03;;
19747;SDS011;10032;51.386;12.516;2023-05-21T04:58:15;30.65;;;17.50;;
19747;SDS011;10032;51.386;12.516;2023-05-21T05:00:44;27.47;;;15.80;;
19747;SDS011;10032;51.386;12.516;2023-05-21T05:03:11;23.97;;;16.03;;
19747;SDS011;10032;51.386;12.516;2023-05-21T05:05:36;26.23;;;16.57;;
19747;SDS011;10032;51.386;12.516;2023-05-21T05:08:02;27.55;;;15.93;;
19747;SDS011;10032;51.386;12.516;2023-05-21T05:10:28;29.50;;;16.17;;
19747;SDS011;10032;51.386;12.516;2023-05-21T05:12:53;26.48;;;16.58;;
19747;SDS011;10032;51.386;12.516;2023-05-21T05:15:19;30.98;;;16.77;;
19747;SDS011;10032;51.386;12.516;2023-05-21T05:17:44;26.57;;;17.93;;
19747;SDS011;10032;51.386;12.516;2023-05-21T05:20:12;22.45;;;15.23;;
19747;SDS011;10032;51.386;12.516;2023-05-21T05:22:37;24.37;;;15.63;;
19747;SDS011;10032;51.386;12.516;2023-05-21T05:25:03;27.27;;;16.60;;
19747;SDS011;10032;51.386;12.516;2023-05-21T05:27:30;24.23;;;15.05;;
19747;SDS011;10032;51.386;12.516;2023-05-21T05:29:55;26.98;;;16.08;;
19747;SDS011;10032;51.386;12.516;2023-05-21T05:32:21;26.05;;;16.77;;
19747;SDS011;10032;51.386;12.516;2023-05-21T05:34:46;25.55;;;16.25;;
19747;SDS011;10032;51.386;12.516;2023-05-21T05:37:11;25.63;;;16.08;;
19747;SDS011;10032;51.386;12.516;2023-05-21T05:39:37;27.25;;;17.05;;
19747;SDS011;10032;51.386;12.516;2023-05-21T05:42:02;27.85;;;17.05;;
19747;SDS011;10032;51.386;12.516;2023-05-21T05:44:28;24.48;;;15.82;;
19747;SDS011;10032;51.386;12.516;2023-05-21T05:46:53;28.05;;;17.38;;
19747;SDS011;10032;51.386;12.516;2023-05-21T05:49:18;24.05;;;15.30;;
19747;SDS011;10032;51.386;12.516;2023-05-21T05:51:44;24.02;;;16.05;;
19747;SDS011;10032;51.386;12.516;2023-05-21T05:54:09;22.45;;;15.15;;
19747;SDS011;10032;51.386;12.516;2023-05-21T05:56:35;21.48;;;14.85;;
19747;SDS011;10032;51.386;12.516;2023-05-21T05:59:00;21.00;;;14.25;;
19747;SDS011;10032;51.386;12.516;2023-05-21T06:01:25;22.05;;;14.32;;
19747;SDS011;10032;51.386;12.516;2023-05-21T06:03:52;21.75;;;14.43;;
19747;SDS011;10032;51.386;12.516;2023-05-21T06:06:17;24.33;;;15.15;;
19747;SDS011;10032;51.386;12.516;2023-05-21T06:08:43;24.17;;;15.82;;
19747;SDS011;10032;51.386;12.516;2023-05-21T06:11:09;21.40;;;14.48;;
19747;SDS011;10032;51.386;12.516;2023-05-21T06:13:35;20.20;;;14.60;;
19747;SDS011;10032;51.386;12.516;2023-05-21T06:16:01;22.00;;;14.50;;
19747;SDS011;10032;51.386;12.516;2023-05-21T06:18:27;20.40;;;13.68;;
19747;SDS011;10032;51.386;12.516;2023-05-21T06:20:52;23.75;;;15.75;;
19747;SDS011;10032;51.386;12.516;2023-05-21T06:23:18;22.48;;;14.40;;
19747;SDS011;10032;51.386;12.516;2023-05-21T06:25:43;19.23;;;14.23;;
19747;SDS011;10032;51.386;12.516;2023-05-21T06:28:09;24.08;;;14.32;;
19747;SDS011;10032;51.386;12.516;2023-05-21T06:30:34;19.48;;;14.95;;
19747;SDS011;10032;51.386;12.516;2023-05-21T06:33:00;18.85;;;14.52;;
19747;SDS011;10032;51.386;12.516;2023-05-21T06:35:25;20.80;;;14.25;;
19747;SDS011;10032;51.386;12.516;2023-05-21T06:37:51;19.85;;;14.27;;
19747;SDS011;10032;51.386;12.516;2023-05-21T06:40:16;22.10;;;14.27;;
19747;SDS011;10032;51.386;12.516;2023-05-21T06:42:42;19.63;;;12.98;;
19747;SDS011;10032;51.386;12.516;2023-05-21T06:45:07;20.63;;;14.52;;
19747;SDS011;10032;51.386;12.516;2023-05-21T06:47:33;20.30;;;13.95;;
19747;SDS011;10032;51.386;12.516;2023-05-21T06:49:58;20.08;;;14.18;;
19747;SDS011;10032;51.386;12.516;2023-05-21T06:52:24;21.70;;;13.38;;
19747;SDS011;10032;51.386;12.516;2023-05-21T06:54:50;19.55;;;13.50;;
19747;SDS011;10032;51.386;12.516;2023-05-21T06:57:16;20.15;;;14.35;;
19747;SDS011;10032;51.386;12.516;2023-05-21T06:59:42;19.40;;;12.93;;
19747;SDS011;10032;51.386;12.516;2023-05-21T07:02:07;20.35;;;14.13;;
19747;SDS011;10032;51.386;12.516;2023-05-21T07:04:33;21.13;;;14.40;;
19747;SDS011;10032;51.386;12.516;2023-05-21T07:06:59;20.63;;;13.20;;
19747;SDS011;10032;51.386;12.516;2023-05-21T07:09:25;17.05;;;12.57;;
19747;SDS011;10032;51.386;12.516;2023-05-21T07:11:50;16.90;;;12.95;;
19747;SDS011;10032;51.386;12.516;2023-05-21T07:14:17;17.17;;;13.20;;
19747;SDS011;10032;51.386;12.516;2023-05-21T07:16:42;17.50;;;12.25;;
19747;SDS011;10032;51.386;12.516;2023-05-21T07:19:08;17.83;;;13.57;;
19747;SDS011;10032;51.386;12.516;2023-05-21T07:21:33;18.65;;;12.88;;
19747;SDS011;10032;51.386;12.516;2023-05-21T07:23:59;16.45;;;12.18;;
19747;SDS011;10032;51.386;12.516;2023-05-21T07:26:24;20.75;;;14.40;;
19747;SDS011;10032;51.386;12.516;2023-05-21T07:28:50;17.30;;;11.80;;
19747;SDS011;10032;51.386;12.516;2023-05-21T07:31:16;16.85;;;12.13;;
19747;SDS011;10032;51.386;12.516;2023-05-21T07:33:41;16.90;;;12.55;;
19747;SDS011;10032;51.386;12.516;2023-05-21T07:36:07;17.02;;;12.32;;
19747;SDS011;10032;51.386;12.516;2023-05-21T07:38:32;16.95;;;12.18;;
19747;SDS011;10032;51.386;12.516;2023-05-21T07:40:58;15.68;;;11.68;;
19747;SDS011;10032;51.386;12.516;2023-05-21T07:43:23;16.70;;;12.23;;
19747;SDS011;10032;51.386;12.516;2023-05-21T07:45:49;15.57;;;11.60;;
19747;SDS011;10032;51.386;12.516;2023-05-21T07:48:14;16.20;;;11.27;;
19747;SDS011;10032;51.386;12.516;2023-05-21T07:50:40;13.80;;;10.93;;
19747;SDS011;10032;51.386;12.516;2023-05-21T07:53:05;15.52;;;11.50;;
19747;SDS011;10032;51.386;12.516;2023-05-21T07:55:31;15.52;;;11.70;;
19747;SDS011;10032;51.386;12.516;2023-05-21T07:57:56;15.98;;;11.90;;
19747;SDS011;10032;51.386;12.516;2023-05-21T08:00:22;17.52;;;12.45;;
19747;SDS011;10032;51.386;12.516;2023-05-21T08:02:48;14.23;;;10.80;;
19747;SDS011;10032;51.386;12.516;2023-05-21T08:05:13;14.15;;;11.45;;
19747;SDS011;10032;51.386;12.516;2023-05-21T08:07:40;13.55;;;10.88;;
19747;SDS011;10032;51.386;12.516;2023-05-21T08:10:05;14.77;;;10.95;;
19747;SDS011;10032;51.386;12.516;2023-05-21T08:12:32;13.73;;;11.43;;
19747;SDS011;10032;51.386;12.516;2023-05-21T08:14:57;15.85;;;11.73;;
19747;SDS011;10032;51.386;12.516;2023-05-21T08:17:23;15.82;;;12.00;;
19747;SDS011;10032;51.386;12.516;2023-05-21T08:19:48;12.95;;;10.60;;
19747;SDS011;10032;51.386;12.516;2023-05-21T08:22:14;16.65;;;10.43;;
19747;SDS011;10032;51.386;12.516;2023-05-21T08:24:39;13.73;;;11.00;;
19747;SDS011;10032;51.386;12.516;2023-05-21T08:27:05;14.00;;;11.38;;
19747;SDS011;10032;51.386;12.516;2023-05-21T08:29:31;13.07;;;10.85;;
19747;SDS011;10032;51.386;12.516;2023-05-21T08:31:57;14.55;;;10.75;;
19747;SDS011;10032;51.386;12.516;2023-05-21T08:34:22;15.45;;;11.27;;
19747;SDS011;10032;51.386;12.516;2023-05-21T08:36:48;11.68;;;9.93;;
19747;SDS011;10032;51.386;12.516;2023-05-21T08:39:14;13.80;;;11.23;;
19747;SDS011;10032;51.386;12.516;2023-05-21T08:41:39;14.52;;;10.52;;
19747;SDS011;10032;51.386;12.516;2023-05-21T08:44:11;12.45;;;10.15;;
19747;SDS011;10032;51.386;12.516;2023-05-21T08:46:38;13.00;;;10.73;;
19747;SDS011;10032;51.386;12.516;2023-05-21T08:49:05;14.55;;;10.52;;
19747;SDS011;10032;51.386;12.516;2023-05-21T08:51:36;15.82;;;9.82;;
19747;SDS011;10032;51.386;12.516;2023-05-21T08:54:03;14.13;;;11.02;;
19747;SDS011;10032;51.386;12.516;2023-05-21T08:56:30;12.93;;;10.55;;
19747;SDS011;10032;51.386;12.516;2023-05-21T08:58:57;14.23;;;11.18;;
19747;SDS011;10032;51.386;12.516;2023-05-21T09:01:23;15.60;;;11.30;;
19747;SDS011;10032;51.386;12.516;2023-05-21T09:03:50;13.00;;;10.45;;
19747;SDS011;10032;51.386;12.516;2023-05-21T09:06:17;13.52;;;10.50;;
19747;SDS011;10032;51.386;12.516;2023-05-21T09:08:44;11.88;;;10.60;;
19747;SDS011;10032;51.386;12.516;2023-05-21T09:11:13;11.65;;;9.52;;
19747;SDS011;10032;51.386;12.516;2023-05-21T09:13:40;12.55;;;10.93;;
19747;SDS011;10032;51.386;12.516;2023-05-21T09:16:08;15.43;;;12.27;;
19747;SDS011;10032;51.386;12.516;2023-05-21T09:18:34;12.63;;;9.93;;
19747;SDS011;10032;51.386;12.516;2023-05-21T09:21:07;13.32;;;10.35;;
19747;SDS011;10032;51.386;12.516;2023-05-21T09:23:55;13.15;;;9.63;;
19747;SDS011;10032;51.386;12.516;2023-05-21T09:26:21;13.52;;;10.60;;
19747;SDS011;10032;51.386;12.516;2023-05-21T09:28:47;13.75;;;10.32;;
19747;SDS011;10032;51.386;12.516;2023-05-21T09:31:13;12.63;;;10.32;;
19747;SDS011;10032;51.386;12.516;2023-05-21T09:33:44;12.82;;;10.63;;
19747;SDS011;10032;51.386;12.516;2023-05-21T09:36:11;10.80;;;9.35;;
19747;SDS011;10032;51.386;12.516;2023-05-21T09:38:37;12.40;;;10.05;;
19747;SDS011;10032;51.386;12.516;2023-05-21T09:41:05;11.57;;;10.15;;
19747;SDS011;10032;51.386;12.516;2023-05-21T09:43:31;11.50;;;9.10;;
19747;SDS011;10032;51.386;12.516;2023-05-21T09:45:58;11.82;;;9.50;;
19747;SDS011;10032;51.386;12.516;2023-05-21T09:48:33;11.05;;;9.55;;
19747;SDS011;10032;51.386;12.516;2023-05-21T09:51:10;10.90;;;9.77;;
19747;SDS011;10032;51.386;12.516;2023-05-21T09:53:43;10.55;;;9.45;;
19747;SDS011;10032;51.386;12.516;2023-05-21T09:56:09;12.75;;;10.30;;
19747;SDS011;10032;51.386;12.516;2023-05-21T09:58:35;11.35;;;9.60;;
19747;SDS011;10032;51.386;12.516;2023-05-21T10:01:02;10.65;;;8.98;;
19747;SDS011;10032;51.386;12.516;2023-05-21T10:03:27;10.93;;;9.32;;
19747;SDS011;10032;51.386;12.516;2023-05-21T10:05:55;10.25;;;8.93;;
19747;SDS011;10032;51.386;12.516;2023-05-21T10:08:25;11.82;;;9.77;;
19747;SDS011;10032;51.386;12.516;2023-05-21T10:10:53;10.48;;;9.07;;
19747;SDS011;10032;51.386;12.516;2023-05-21T10:13:19;12.10;;;9.70;;
19747;SDS011;10032;51.386;12.516;2023-05-21T10:15:52;10.18;;;8.68;;
19747;SDS011;10032;51.386;12.516;2023-05-21T10:18:23;10.60;;;9.50;;
19747;SDS011;10032;51.386;12.516;2023-05-21T10:20:49;22.55;;;9.75;;
19747;SDS011;10032;51.386;12.516;2023-05-21T10:23:16;10.25;;;8.55;;
19747;SDS011;10032;51.386;12.516;2023-05-21T10:25:42;9.63;;;8.38;;
19747;SDS011;10032;51.386;12.516;2023-05-21T10:28:09;11.57;;;8.98;;
19747;SDS011;10032;51.386;12.516;2023-05-21T10:30:37;9.93;;;8.93;;
19747;SDS011;10032;51.386;12.516;2023-05-21T10:33:03;11.32;;;8.82;;
19747;SDS011;10032;51.386;12.516;2023-05-21T10:35:28;9.68;;;8.27;;
19747;SDS011;10032;51.386;12.516;2023-05-21T10:37:53;10.77;;;8.63;;
19747;SDS011;10032;51.386;12.516;2023-05-21T10:40:21;8.77;;;7.88;;
19747;SDS011;10032;51.386;12.516;2023-05-21T10:43:01;9.57;;;8.60;;
19747;SDS011;10032;51.386;12.516;2023-05-21T10:45:58;9.48;;;8.23;;
19747;SDS011;10032;51.386;12.516;2023-05-21T10:59:47;6.85;;;6.20;;
19747;SDS011;10032;51.386;12.516;2023-05-21T11:02:14;10.80;;;7.15;;
19747;SDS011;10032;51.386;12.516;2023-05-21T11:04:40;9.95;;;8.10;;
19747;SDS011;10032;51.386;12.516;2023-05-21T11:07:09;8.20;;;7.40;;
19747;SDS011;10032;51.386;12.516;2023-05-21T11:09:36;9.07;;;8.15;;
19747;SDS011;10032;51.386;12.516;2023-05-21T11:12:02;9.05;;;7.60;;
19747;SDS011;10032;51.386;12.516;2023-05-21T11:14:29;9.13;;;7.15;;
19747;SDS011;10032;51.386;12.516;2023-05-21T11:19:35;8.30;;;7.45;;
19747;SDS011;10032;51.386;12.516;2023-05-21T11:22:24;7.97;;;6.95;;
19747;SDS011;10032;51.386;12.516;2023-05-21T11:24:54;8.57;;;7.55;;
19747;SDS011;10032;51.386;12.516;2023-05-21T11:27:36;9.65;;;7.47;;
19747;SDS011;10032;51.386;12.516;2023-05-21T11:30:03;8.63;;;7.63;;
19747;SDS011;10032;51.386;12.516;2023-05-21T11:32:33;7.97;;;7.18;;
19747;SDS011;10032;51.386;12.516;2023-05-21T11:35:01;8.73;;;7.57;;
19747;SDS011;10032;51.386;12.516;2023-05-21T11:37:30;8.60;;;7.20;;
19747;SDS011;10032;51.386;12.516;2023-05-21T11:42:50;7.82;;;7.05;;
19747;SDS011;10032;51.386;12.516;2023-05-21T11:45:19;9.10;;;7.25;;
19747;SDS011;10032;51.386;12.516;2023-05-21T11:47:49;7.65;;;6.88;;
19747;SDS011;10032;51.386;12.516;2023-05-21T11:50:17;8.38;;;7.07;;
19747;SDS011;10032;51.386;12.516;2023-05-21T11:52:43;7.85;;;7.00;;
19747;SDS011;10032;51.386;12.516;2023-05-21T11:55:09;9.45;;;7.05;;
19747;SDS011;10032;51.386;12.516;2023-05-21T11:57:35;9.48;;;7.90;;
19747;SDS011;10032;51.386;12.516;2023-05-21T12:00:01;7.72;;;6.88;;
19747;SDS011;10032;51.386;12.516;2023-05-21T12:02:37;7.70;;;6.63;;
19747;SDS011;10032;51.386;12.516;2023-05-21T12:05:03;7.97;;;6.75;;
19747;SDS011;10032;51.386;12.516;2023-05-21T12:07:30;8.32;;;7.10;;
19747;SDS011;10032;51.386;12.516;2023-05-21T12:09:55;8.40;;;7.40;;
19747;SDS011;10032;51.386;12.516;2023-05-21T12:12:24;8.95;;;6.95;;
19747;SDS011;10032;51.386;12.516;2023-05-21T12:14:51;8.57;;;6.38;;
19747;SDS011;10032;51.386;12.516;2023-05-21T12:17:21;8.23;;;7.35;;
19747;SDS011;10032;51.386;12.516;2023-05-21T12:19:49;7.40;;;6.70;;
19747;SDS011;10032;51.386;12.516;2023-05-21T12:22:17;8.32;;;7.20;;
19747;SDS011;10032;51.386;12.516;2023-05-21T12:24:42;7.53;;;6.68;;
19747;SDS011;10032;51.386;12.516;2023-05-21T12:27:09;7.85;;;6.72;;
19747;SDS011;10032;51.386;12.516;2023-05-21T12:29:40;7.47;;;6.60;;
19747;SDS011;10032;51.386;12.516;2023-05-21T12:32:10;8.82;;;6.97;;
19747;SDS011;10032;51.386;12.516;2023-05-21T12:34:43;8.25;;;6.88;;
19747;SDS011;10032;51.386;12.516;2023-05-21T12:37:26;8.77;;;7.05;;
19747;SDS011;10032;51.386;12.516;2023-05-21T12:40:00;8.52;;;7.07;;
19747;SDS011;10032;51.386;12.516;2023-05-21T12:42:31;9.38;;;7.00;;
19747;SDS011;10032;51.386;12.516;2023-05-21T12:45:04;8.38;;;6.95;;
19747;SDS011;10032;51.386;12.516;2023-05-21T12:47:31;7.22;;;6.53;;
19747;SDS011;10032;51.386;12.516;2023-05-21T12:49:57;9.93;;;7.20;;
19747;SDS011;10032;51.386;12.516;2023-05-21T12:52:27;7.30;;;6.60;;
19747;SDS011;10032;51.386;12.516;2023-05-21T12:54:55;7.70;;;6.85;;
19747;SDS011;10032;51.386;12.516;2023-05-21T12:57:22;9.80;;;7.82;;
19747;SDS011;10032;51.386;12.516;2023-05-21T12:59:56;8.60;;;7.15;;
19747;SDS011;10032;51.386;12.516;2023-05-21T13:02:30;14.18;;;7.13;;
19747;SDS011;10032;51.386;12.516;2023-05-21T13:05:00;8.38;;;7.38;;
19747;SDS011;10032;51.386;12.516;2023-05-21T13:07:27;9.18;;;7.15;;
19747;SDS011;10032;51.386;12.516;2023-05-21T13:09:54;9.65;;;7.65;;
19747;SDS011;10032;51.386;12.516;2023-05-21T13:12:23;7.80;;;7.03;;
19747;SDS011;10032;51.386;12.516;2023-05-21T13:14:51;8.90;;;7.55;;
19747;SDS011;10032;51.386;12.516;2023-05-21T13:17:18;8.38;;;7.45;;
19747;SDS011;10032;51.386;12.516;2023-05-21T13:20:02;7.72;;;6.68;;
19747;SDS011;10032;51.386;12.516;2023-05-21T13:22:37;8.10;;;6.85;;
19747;SDS011;10032;51.386;12.516;2023-05-21T13:25:12;8.90;;;8.00;;
19747;SDS011;10032;51.386;12.516;2023-05-21T13:27:40;9.18;;;7.57;;
19747;SDS011;10032;51.386;12.516;2023-05-21T13:30:06;9.55;;;8.55;;
19747;SDS011;10032;51.386;12.516;2023-05-21T13:32:33;10.00;;;8.10;;
19747;SDS011;10032;51.386;12.516;2023-05-21T13:34:59;9.27;;;7.70;;
19747;SDS011;10032;51.386;12.516;2023-05-21T13:37:25;7.65;;;6.80;;
19747;SDS011;10032;51.386;12.516;2023-05-21T13:39:50;8.48;;;7.57;;
19747;SDS011;10032;51.386;12.516;2023-05-21T13:42:16;8.35;;;7.45;;
19747;SDS011;10032;51.386;12.516;2023-05-21T13:44:41;9.48;;;7.85;;
19747;SDS011;10032;51.386;12.516;2023-05-21T13:47:07;7.93;;;6.82;;
19747;SDS011;10032;51.386;12.516;2023-05-21T13:49:36;10.45;;;7.45;;
19747;SDS011;10032;51.386;12.516;2023-05-21T13:52:02;6.72;;;6.00;;
19747;SDS011;10032;51.386;12.516;2023-05-21T13:54:28;7.68;;;6.57;;
19747;SDS011;10032;51.386;12.516;2023-05-21T13:56:53;6.63;;;5.47;;
19747;SDS011;10032;51.386;12.516;2023-05-21T13:59:19;7.22;;;5.82;;
19747;SDS011;10032;51.386;12.516;2023-05-21T14:01:45;6.05;;;5.30;;
19747;SDS011;10032;51.386;12.516;2023-05-21T14:04:12;6.18;;;5.38;;
19747;SDS011;10032;51.386;12.516;2023-05-21T14:06:37;6.65;;;5.82;;
19747;SDS011;10032;51.386;12.516;2023-05-21T14:09:03;5.88;;;5.28;;
19747;SDS011;10032;51.386;12.516;2023-05-21T14:11:29;6.10;;;5.50;;
19747;SDS011;10032;51.386;12.516;2023-05-21T14:13:56;10.68;;;5.30;;
19747;SDS011;10032;51.386;12.516;2023-05-21T14:16:22;6.63;;;5.95;;
19747;SDS011;10032;51.386;12.516;2023-05-21T14:18:49;10.73;;;5.63;;
19747;SDS011;10032;51.386;12.516;2023-05-21T14:21:15;8.73;;;6.95;;
19747;SDS011;10032;51.386;12.516;2023-05-21T14:23:40;7.00;;;6.30;;
19747;SDS011;10032;51.386;12.516;2023-05-21T14:26:05;6.03;;;5.43;;
19747;SDS011;10032;51.386;12.516;2023-05-21T14:28:31;7.45;;;6.28;;
19747;SDS011;10032;51.386;12.516;2023-05-21T14:30:56;8.77;;;6.85;;
19747;SDS011;10032;51.386;12.516;2023-05-21T14:33:22;6.97;;;6.28;;
19747;SDS011;10032;51.386;12.516;2023-05-21T14:35:47;8.90;;;6.38;;
19747;SDS011;10032;51.386;12.516;2023-05-21T14:38:12;8.73;;;6.85;;
19747;SDS011;10032;51.386;12.516;2023-05-21T14:40:38;7.40;;;6.40;;